createdAt,value
2023-01-19T00:00:27.003Z,2.90
2023-01-19T00:02:54.907Z,2.36
2023-01-19T00:05:21.977Z,2.79
2023-01-19T00:07:48.640Z,2.81
2023-01-19T00:10:15.601Z,2.35
2023-01-19T00:12:42.315Z,2.56
2023-01-19T00:15:09.541Z,2.98
2023-01-19T00:17:36.144Z,2.86
2023-01-19T00:20:03.951Z,2.46
2023-01-19T00:22:30.611Z,2.47
2023-01-19T00:24:57.448Z,2.90
2023-01-19T00:27:24.867Z,2.93
2023-01-19T00:29:51.471Z,2.90
2023-01-19T00:32:20.296Z,2.73
2023-01-19T00:34:49.639Z,2.70
2023-01-19T00:37:17.363Z,2.71
2023-01-19T00:39:44.927Z,2.71
2023-01-19T00:42:31.161Z,2.73
2023-01-19T00:44:57.939Z,2.66
2023-01-19T00:47:25.364Z,2.86
2023-01-19T00:49:52.092Z,2.74
2023-01-19T00:52:18.997Z,2.67
2023-01-19T00:54:45.597Z,2.91
2023-01-19T00:57:12.690Z,2.76
2023-01-19T00:59:39.291Z,2.88
2023-01-19T01:02:06.050Z,2.91
2023-01-19T01:04:33.128Z,2.94
2023-01-19T01:06:59.707Z,2.97
2023-01-19T01:09:26.506Z,3.03
2023-01-19T01:11:53.538Z,2.43
2023-01-19T01:14:20.162Z,3.01
2023-01-19T01:16:46.809Z,2.74
2023-01-19T01:19:13.503Z,3.18
2023-01-19T01:21:40.101Z,3.03
2023-01-19T01:24:07.767Z,3.12
2023-01-19T01:26:34.266Z,3.11
2023-01-19T01:29:01.275Z,2.99
2023-01-19T01:31:27.884Z,2.59
2023-01-19T01:33:54.476Z,3.19
2023-01-19T01:36:21.071Z,3.06
2023-01-19T01:38:47.624Z,2.41
2023-01-19T01:41:14.558Z,2.98
2023-01-19T01:43:49.202Z,2.80
2023-01-19T01:46:18.202Z,2.84
2023-01-19T01:48:54.256Z,2.87
2023-01-19T01:51:27.268Z,2.79
2023-01-19T01:54:03.366Z,2.59
2023-01-19T01:56:37.351Z,2.26
2023-01-19T01:59:08.592Z,2.77
2023-01-19T02:01:54.911Z,2.59
2023-01-19T02:04:23.237Z,2.22
2023-01-19T02:07:09.231Z,2.67
2023-01-19T02:09:55.825Z,2.69
2023-01-19T02:12:42.114Z,2.24
2023-01-19T02:15:20.549Z,2.13
2023-01-19T02:17:47.996Z,2.56
2023-01-19T02:20:15.500Z,2.41
2023-01-19T02:22:48.684Z,2.17
2023-01-19T02:25:16.582Z,2.14
2023-01-19T02:27:43.208Z,2.21
2023-01-19T02:30:11.361Z,2.16
2023-01-19T02:32:37.966Z,2.23
2023-01-19T02:35:05.361Z,2.07
2023-01-19T02:37:37.461Z,1.65
2023-01-19T02:40:08.318Z,2.00
2023-01-19T02:42:43.976Z,1.86
2023-01-19T02:45:14.453Z,1.81
2023-01-19T02:47:50.471Z,1.97
2023-01-19T02:50:38.277Z,2.07
2023-01-19T02:53:43.832Z,2.03
2023-01-19T02:56:28.719Z,2.02
2023-01-19T02:59:13.751Z,1.88
2023-01-19T03:01:47.883Z,1.86
2023-01-19T03:04:21.767Z,1.72
2023-01-19T03:07:09.455Z,0.99
2023-01-19T03:09:56.554Z,1.60
2023-01-19T03:12:42.646Z,1.64
2023-01-19T03:15:22.247Z,1.57
2023-01-19T03:17:51.398Z,1.55
2023-01-19T03:20:22.692Z,1.48
2023-01-19T03:22:53.962Z,1.82
2023-01-19T03:25:23.098Z,1.89
2023-01-19T03:27:53.891Z,1.84
2023-01-19T03:30:33.996Z,1.95
2023-01-19T03:33:05.173Z,1.85
2023-01-19T03:35:34.907Z,1.17
2023-01-19T03:38:06.083Z,1.61
2023-01-19T03:40:35.077Z,1.52
2023-01-19T03:43:03.516Z,1.46
2023-01-19T03:45:33.833Z,1.47
2023-01-19T03:48:00.468Z,1.25
2023-01-19T03:50:28.940Z,0.84
2023-01-19T03:53:22.732Z,1.30
2023-01-19T03:55:51.674Z,1.29
2023-01-19T03:58:18.278Z,1.36
2023-01-19T04:00:44.820Z,1.00
2023-01-19T04:03:14.572Z,1.35
2023-01-19T04:05:41.445Z,0.95
2023-01-19T04:08:08.858Z,1.39
2023-01-19T04:10:35.913Z,1.41
2023-01-19T04:13:04.142Z,1.31
2023-01-19T04:15:31.382Z,0.81
2023-01-19T04:18:01.756Z,1.26
2023-01-19T04:20:29.050Z,1.35
2023-01-19T04:22:59.790Z,1.25
2023-01-19T04:25:27.764Z,1.13
2023-01-19T04:27:55.157Z,0.78
2023-01-19T04:30:22.600Z,1.33
2023-01-19T04:32:49.496Z,1.33
2023-01-19T04:35:16.978Z,0.73
2023-01-19T04:37:44.917Z,1.37
2023-01-19T04:40:11.915Z,1.36
2023-01-19T04:42:38.456Z,1.31
2023-01-19T04:45:06.382Z,1.49
2023-01-19T04:47:32.916Z,1.24
2023-01-19T04:49:59.465Z,1.52
2023-01-19T04:52:34.817Z,1.05
2023-01-19T04:55:02.893Z,1.46
2023-01-19T04:57:32.954Z,0.99
2023-01-19T04:59:59.697Z,1.15
2023-01-19T05:02:26.832Z,1.77
2023-01-19T05:04:53.819Z,1.67
2023-01-19T05:07:20.327Z,1.26
2023-01-19T05:09:46.946Z,1.73
2023-01-19T05:12:13.631Z,1.66
2023-01-19T05:14:40.327Z,1.76
2023-01-19T05:17:07.197Z,1.72
2023-01-19T05:19:33.716Z,1.27
2023-01-19T05:22:02.682Z,1.82
2023-01-19T05:24:29.820Z,1.78
2023-01-19T05:26:56.497Z,2.01
2023-01-19T05:29:23.357Z,1.86
2023-01-19T05:31:50.041Z,1.80
2023-01-19T05:34:17.520Z,1.99
2023-01-19T05:36:45.092Z,1.81
2023-01-19T05:39:11.803Z,1.96
2023-01-19T05:41:38.329Z,1.95
2023-01-19T05:44:04.988Z,1.55
2023-01-19T05:46:33.456Z,1.53
2023-01-19T05:49:04.125Z,1.62
2023-01-19T05:51:35.073Z,2.16
2023-01-19T05:54:02.003Z,1.99
2023-01-19T05:56:28.959Z,2.06
2023-01-19T05:58:55.609Z,1.80
2023-01-19T06:01:22.395Z,1.48
2023-01-19T06:03:48.982Z,1.65
2023-01-19T06:06:15.810Z,2.07
2023-01-19T06:08:42.390Z,1.91
2023-01-19T06:11:08.990Z,2.24
2023-01-19T06:13:35.600Z,1.88
2023-01-19T06:16:03.310Z,1.64
2023-01-19T06:18:30.076Z,1.73
2023-01-19T06:20:58.829Z,1.70
2023-01-19T06:23:26.840Z,2.16
2023-01-19T06:25:53.462Z,1.71
2023-01-19T06:28:19.930Z,2.03
2023-01-19T06:30:50.398Z,2.15
2023-01-19T06:33:18.077Z,1.71
2023-01-19T06:35:46.098Z,1.72
2023-01-19T06:38:16.997Z,1.79
2023-01-19T06:40:43.768Z,1.49
2023-01-19T06:43:11.020Z,1.50
2023-01-19T06:45:39.217Z,1.98
2023-01-19T06:48:06.346Z,1.85
2023-01-19T06:50:32.920Z,1.23
2023-01-19T06:52:59.786Z,1.24
2023-01-19T06:55:27.693Z,1.32
2023-01-19T06:58:01.378Z,1.84
2023-01-19T07:00:28.950Z,1.18
2023-01-19T07:02:55.689Z,1.73
2023-01-19T07:05:22.545Z,1.34
2023-01-19T07:07:54.282Z,1.35
2023-01-19T07:10:21.982Z,1.80
2023-01-19T07:12:48.532Z,1.14
2023-01-19T07:15:16.912Z,1.75
2023-01-19T07:17:44.117Z,1.80
2023-01-19T07:20:14.160Z,1.48
2023-01-19T07:22:43.522Z,1.32
2023-01-19T07:25:10.132Z,1.31
2023-01-19T07:27:36.678Z,1.78
2023-01-19T07:30:04.523Z,1.36
2023-01-19T07:32:31.280Z,1.93
2023-01-19T07:34:57.896Z,1.85
2023-01-19T07:37:24.419Z,1.99
2023-01-19T07:39:51.111Z,1.63
2023-01-19T07:42:17.857Z,1.62
2023-01-19T07:44:44.404Z,2.25
2023-01-19T07:47:12.623Z,2.15
2023-01-19T07:49:39.648Z,2.16
2023-01-19T07:52:06.215Z,2.01
2023-01-19T07:54:32.899Z,1.63
2023-01-19T07:57:00.787Z,2.48
2023-01-19T07:59:30.138Z,1.93
2023-01-19T08:01:59.284Z,2.34
2023-01-19T08:04:27.115Z,1.93
2023-01-19T08:06:55.032Z,2.42
2023-01-19T08:09:21.695Z,2.45
2023-01-19T08:11:48.351Z,2.53
2023-01-19T08:14:15.111Z,2.44
2023-01-19T08:16:41.628Z,1.78
2023-01-19T08:19:08.262Z,1.78
2023-01-19T08:21:36.311Z,2.19
2023-01-19T08:24:03.205Z,2.08
2023-01-19T08:26:49.699Z,2.32
2023-01-19T08:29:16.466Z,2.12
2023-01-19T08:31:43.827Z,1.67
2023-01-19T08:34:10.513Z,2.22
2023-01-19T08:36:37.116Z,2.39
2023-01-19T08:39:03.729Z,2.19
2023-01-19T08:41:30.320Z,1.77
2023-01-19T08:43:57.191Z,2.24
2023-01-19T08:46:23.813Z,2.55
2023-01-19T08:48:50.530Z,2.52
2023-01-19T08:51:17.700Z,2.24
2023-01-19T08:53:44.353Z,2.86
2023-01-19T08:56:12.370Z,2.93
2023-01-19T08:58:40.374Z,3.03
2023-01-19T09:01:08.635Z,2.89
2023-01-19T09:03:38.229Z,3.34
2023-01-19T09:06:08.599Z,3.68
2023-01-19T09:08:35.445Z,4.30
2023-01-19T09:11:02.456Z,4.75
2023-01-19T09:13:29.047Z,4.88
2023-01-19T09:15:55.560Z,4.62
2023-01-19T09:18:22.565Z,4.01
2023-01-19T09:20:50.310Z,4.21
2023-01-19T09:23:19.285Z,4.15
2023-01-19T09:25:47.792Z,3.95
2023-01-19T09:28:16.446Z,4.11
2023-01-19T09:30:43.633Z,3.32
2023-01-19T09:33:13.454Z,4.21
2023-01-19T09:35:40.826Z,3.90
2023-01-19T09:38:08.894Z,3.92
2023-01-19T09:40:42.076Z,4.19
2023-01-19T09:43:12.987Z,4.67
2023-01-19T09:45:45.989Z,4.47
2023-01-19T09:48:26.663Z,4.34
2023-01-19T09:50:58.595Z,4.05
2023-01-19T09:53:40.950Z,4.06
2023-01-19T09:56:15.121Z,4.70
2023-01-19T09:58:42.191Z,5.12
2023-01-19T10:01:36.276Z,5.55
2023-01-19T10:04:18.951Z,6.12
2023-01-19T10:06:48.517Z,6.84
2023-01-19T10:09:46.524Z,7.40
2023-01-19T10:12:25.216Z,6.71
2023-01-19T10:15:13.050Z,6.71
2023-01-19T10:18:10.368Z,6.93
2023-01-19T10:20:43.728Z,6.40
2023-01-19T10:23:31.884Z,6.53
2023-01-19T10:26:04.723Z,6.12
2023-01-19T10:28:32.099Z,6.12
2023-01-19T10:30:58.805Z,6.22
2023-01-19T10:33:25.377Z,6.00
2023-01-19T10:35:51.934Z,6.48
2023-01-19T10:38:22.016Z,6.12
2023-01-19T10:41:00.928Z,5.68
2023-01-19T10:43:39.994Z,5.76
2023-01-19T10:46:17.272Z,5.46
2023-01-19T10:48:44.776Z,6.53
2023-01-19T10:51:11.932Z,6.56
2023-01-19T10:53:38.582Z,6.50
2023-01-19T10:56:23.094Z,5.92
2023-01-19T10:58:49.971Z,6.07
2023-01-19T11:01:20.906Z,5.70
2023-01-19T11:03:48.157Z,5.43
2023-01-19T11:06:15.460Z,5.08
2023-01-19T11:08:44.204Z,4.90
2023-01-19T11:11:12.411Z,4.49
2023-01-19T11:14:01.687Z,5.24
2023-01-19T11:16:31.396Z,5.55
2023-01-19T11:19:01.897Z,6.84
2023-01-19T11:21:30.505Z,7.11
2023-01-19T11:24:00.610Z,7.97
2023-01-19T11:26:34.967Z,9.11
2023-01-19T11:29:03.945Z,8.99
2023-01-19T11:31:33.872Z,9.91
2023-01-19T11:34:05.894Z,10.49
2023-01-19T11:36:35.594Z,9.75
2023-01-19T11:39:21.544Z,10.67
2023-01-19T11:41:51.753Z,10.85
2023-01-19T11:44:23.477Z,10.94
2023-01-19T11:46:55.655Z,11.47
2023-01-19T11:49:29.990Z,11.24
2023-01-19T11:52:04.175Z,11.82
2023-01-19T11:54:47.307Z,12.13
2023-01-19T11:57:17.146Z,11.76
2023-01-19T11:59:44.659Z,12.21
2023-01-19T12:02:19.870Z,12.41
2023-01-19T12:04:49.231Z,12.98
2023-01-19T12:07:30.267Z,13.86
2023-01-19T12:10:07.689Z,13.22
2023-01-19T12:12:36.505Z,13.75
2023-01-19T12:15:07.747Z,13.72
2023-01-19T12:17:38.003Z,13.72
2023-01-19T12:20:14.893Z,13.18
2023-01-19T12:22:50.139Z,11.18
2023-01-19T12:25:23.830Z,11.79
2023-01-19T12:27:52.964Z,10.63
2023-01-19T12:30:23.282Z,8.91
2023-01-19T12:32:51.254Z,8.14
2023-01-19T12:35:56.281Z,8.55
2023-01-19T12:38:48.940Z,7.87
2023-01-19T12:41:24.107Z,6.98
2023-01-19T12:44:15.969Z,6.65
2023-01-19T12:46:49.122Z,6.36
2023-01-19T12:49:38.570Z,6.05
2023-01-19T12:52:21.727Z,5.90
2023-01-19T12:54:58.798Z,5.44
2023-01-19T12:57:31.096Z,6.02
2023-01-19T13:00:00.365Z,6.86
2023-01-19T13:02:27.066Z,8.62
2023-01-19T13:05:13.838Z,10.08
2023-01-19T13:08:13.548Z,10.02
2023-01-19T13:11:13.837Z,8.45
2023-01-19T13:13:43.907Z,7.23
2023-01-19T13:16:19.679Z,7.37
2023-01-19T13:18:47.896Z,7.36
2023-01-19T13:21:34.980Z,8.21
2023-01-19T13:24:03.967Z,9.91
2023-01-19T13:27:03.665Z,12.14
2023-01-19T13:29:37.246Z,12.65
2023-01-19T13:32:18.772Z,12.52
2023-01-19T13:34:49.379Z,12.28
2023-01-19T13:37:22.881Z,11.91
2023-01-19T13:39:52.256Z,11.00
2023-01-19T13:42:33.224Z,10.22
2023-01-19T13:45:03.201Z,9.51
2023-01-19T13:47:39.295Z,8.91
2023-01-19T13:50:06.589Z,9.49
2023-01-19T13:52:33.243Z,9.01
2023-01-19T13:55:03.668Z,8.36
2023-01-19T13:57:41.369Z,8.60
2023-01-19T14:00:08.536Z,8.08
2023-01-19T14:03:01.291Z,7.93
2023-01-19T14:05:34.290Z,7.64
2023-01-19T14:08:01.983Z,7.19
2023-01-19T14:10:31.007Z,7.38
2023-01-19T14:13:03.336Z,7.23
2023-01-19T14:15:32.890Z,6.52
2023-01-19T14:18:17.773Z,7.41
2023-01-19T14:20:57.879Z,6.71
2023-01-19T14:23:43.396Z,7.99
2023-01-19T14:26:38.236Z,7.82
2023-01-19T14:29:21.602Z,6.64
2023-01-19T14:31:51.564Z,5.98
2023-01-19T14:34:30.312Z,6.49
2023-01-19T14:36:57.603Z,6.51
2023-01-19T14:39:27.705Z,6.52
2023-01-19T14:41:58.038Z,6.47
2023-01-19T14:44:35.105Z,5.51
2023-01-19T14:47:02.931Z,6.50
2023-01-19T14:49:38.955Z,7.26
2023-01-19T14:52:19.555Z,6.91
2023-01-19T14:54:47.524Z,5.81
2023-01-19T14:57:14.566Z,6.18
2023-01-19T14:59:42.108Z,5.76
2023-01-19T15:02:09.224Z,5.61
2023-01-19T15:04:35.796Z,5.16
2023-01-19T15:07:02.663Z,4.51
2023-01-19T15:09:29.231Z,4.60
2023-01-19T15:11:55.915Z,4.00
2023-01-19T15:14:22.740Z,4.25
2023-01-19T15:16:50.028Z,4.17
2023-01-19T15:19:17.935Z,3.57
2023-01-19T15:21:46.320Z,3.40
2023-01-19T15:24:13.630Z,3.93
2023-01-19T15:26:42.587Z,3.73
2023-01-19T15:29:20.983Z,3.21
2023-01-19T15:31:47.731Z,3.66
2023-01-19T15:34:14.624Z,3.04
2023-01-19T15:36:42.112Z,2.89
2023-01-19T15:39:10.538Z,3.32
2023-01-19T15:41:39.585Z,3.22
2023-01-19T15:44:07.112Z,2.72
2023-01-19T15:46:34.805Z,3.10
2023-01-19T15:49:01.489Z,3.12
2023-01-19T15:51:28.573Z,2.96
2023-01-19T15:53:55.468Z,2.64
2023-01-19T15:56:24.915Z,3.00
2023-01-19T15:58:53.163Z,3.05
2023-01-19T16:01:22.888Z,2.87
2023-01-19T16:03:50.489Z,2.66
2023-01-19T16:06:17.902Z,1.83
2023-01-19T16:08:44.913Z,2.52
2023-01-19T16:11:14.390Z,2.59
2023-01-19T16:13:45.356Z,2.68
2023-01-19T16:16:20.324Z,2.57
2023-01-19T16:18:47.575Z,2.43
2023-01-19T16:21:14.636Z,2.26
2023-01-19T16:23:41.528Z,2.07
2023-01-19T16:26:30.200Z,2.21
2023-01-19T16:29:10.904Z,2.05
2023-01-19T16:31:39.177Z,1.57
2023-01-19T16:34:06.200Z,1.81
2023-01-19T16:36:35.462Z,1.77
2023-01-19T16:39:05.460Z,1.42
2023-01-19T16:41:36.014Z,1.91
2023-01-19T16:44:03.458Z,1.38
2023-01-19T16:46:34.426Z,1.21
2023-01-19T16:49:11.363Z,1.58
2023-01-19T16:51:38.239Z,1.52
2023-01-19T16:54:05.189Z,1.17
2023-01-19T16:56:31.925Z,0.84
2023-01-19T16:58:59.454Z,1.58
2023-01-19T17:01:27.588Z,0.50
2023-01-19T17:03:55.238Z,1.43
2023-01-19T17:06:23.323Z,1.29
2023-01-19T17:08:51.010Z,1.06
2023-01-19T17:11:20.807Z,0.77
2023-01-19T17:13:48.356Z,0.95
2023-01-19T17:16:15.086Z,0.83
2023-01-19T17:18:41.701Z,0.92
2023-01-19T17:21:09.913Z,0.81
2023-01-19T17:23:41.508Z,0.87
2023-01-19T17:26:08.148Z,0.37
2023-01-19T17:28:34.718Z,0.28
2023-01-19T17:31:10.646Z,0.33
2023-01-19T17:33:37.850Z,0.54
2023-01-19T17:36:07.117Z,0.55
2023-01-19T17:38:34.381Z,0.37
2023-01-19T17:41:01.046Z,0.64
2023-01-19T17:43:27.688Z,0.39
2023-01-19T17:45:54.363Z,0.46
2023-01-19T17:48:20.973Z,0.49
2023-01-19T17:50:47.556Z,-0.18
2023-01-19T17:53:14.112Z,0.47
2023-01-19T17:55:40.670Z,0.49
2023-01-19T17:58:07.288Z,0.65
2023-01-19T18:00:34.343Z,0.56
2023-01-19T18:03:01.117Z,0.34
2023-01-19T18:05:27.644Z,0.35
2023-01-19T18:07:54.267Z,0.30
2023-01-19T18:10:20.848Z,0.21
2023-01-19T18:12:47.413Z,-0.16
2023-01-19T18:15:16.004Z,0.31
2023-01-19T18:17:43.741Z,0.35
2023-01-19T18:20:11.145Z,0.17
2023-01-19T18:22:37.895Z,-0.09
2023-01-19T18:25:04.765Z,0.21
2023-01-19T18:27:31.360Z,-0.14
2023-01-19T18:29:57.893Z,0.17
2023-01-19T18:32:26.416Z,0.14
2023-01-19T18:34:54.013Z,-0.11
2023-01-19T18:37:24.693Z,0.10
2023-01-19T18:39:51.354Z,-0.07
2023-01-19T18:42:18.018Z,-0.12
2023-01-19T18:44:44.620Z,-0.09
2023-01-19T18:47:11.186Z,-0.44
2023-01-19T18:49:37.693Z,0.11
2023-01-19T18:52:04.425Z,-0.18
2023-01-19T18:54:31.009Z,-0.31
2023-01-19T18:56:57.681Z,-0.12
2023-01-19T18:59:24.174Z,-0.09
2023-01-19T19:01:50.827Z,-0.07
2023-01-19T19:04:17.411Z,-0.26
2023-01-19T19:06:44.012Z,-0.16
2023-01-19T19:09:10.681Z,-0.27
2023-01-19T19:11:37.318Z,-0.11
2023-01-19T19:14:04.181Z,-0.29
2023-01-19T19:16:32.187Z,-0.12
2023-01-19T19:19:00.791Z,-0.40
2023-01-19T19:21:27.773Z,-0.26
2023-01-19T19:23:56.269Z,-0.82
2023-01-19T19:26:24.377Z,-0.58
2023-01-19T19:28:51.982Z,-0.52
2023-01-19T19:31:21.241Z,-0.45
2023-01-19T19:33:48.901Z,-1.18
2023-01-19T19:36:15.582Z,-0.49
2023-01-19T19:38:44.248Z,-0.54
2023-01-19T19:41:17.783Z,-0.36
2023-01-19T19:43:44.365Z,-0.47
2023-01-19T19:46:13.629Z,-0.86
2023-01-19T19:48:40.851Z,-0.74
2023-01-19T19:51:18.366Z,-0.41
2023-01-19T19:53:47.035Z,-0.44
2023-01-19T19:56:14.776Z,-0.34
2023-01-19T19:58:43.063Z,-0.96
2023-01-19T20:01:15.225Z,-0.45
2023-01-19T20:03:41.926Z,-0.47
2023-01-19T20:06:14.495Z,-0.53
2023-01-19T20:08:41.460Z,-0.40
2023-01-19T20:11:10.812Z,-0.66
2023-01-19T20:13:39.571Z,-1.01
2023-01-19T20:16:10.112Z,-0.62
2023-01-19T20:18:42.294Z,-1.04
2023-01-19T20:21:17.378Z,-0.79
2023-01-19T20:23:45.384Z,-0.42
2023-01-19T20:26:13.926Z,-0.30
2023-01-19T20:28:41.093Z,-0.03
2023-01-19T20:31:16.300Z,-0.66
2023-01-19T20:33:43.583Z,0.27
2023-01-19T20:36:11.135Z,-0.03
2023-01-19T20:38:39.063Z,0.64
2023-01-19T20:41:07.330Z,0.75
2023-01-19T20:43:34.163Z,0.76
2023-01-19T20:46:00.763Z,0.25
2023-01-19T20:48:27.472Z,0.54
2023-01-19T20:51:02.003Z,0.73
2023-01-19T20:53:29.425Z,1.15
2023-01-19T20:55:56.404Z,1.11
2023-01-19T20:58:23.871Z,1.32
2023-01-19T21:00:50.755Z,1.01
2023-01-19T21:03:17.811Z,1.13
2023-01-19T21:05:47.661Z,1.47
2023-01-19T21:08:14.889Z,1.09
2023-01-19T21:10:42.425Z,1.38
2023-01-19T21:13:08.999Z,1.57
2023-01-19T21:15:36.498Z,1.11
2023-01-19T21:18:18.060Z,1.51
2023-01-19T21:20:44.968Z,1.13
2023-01-19T21:23:11.475Z,1.52
2023-01-19T21:25:38.265Z,1.22
2023-01-19T21:28:05.340Z,1.46
2023-01-19T21:30:31.957Z,1.32
2023-01-19T21:32:58.551Z,1.69
2023-01-19T21:35:25.219Z,1.44
2023-01-19T21:37:51.834Z,1.80
2023-01-19T21:40:18.777Z,1.82
2023-01-19T21:42:45.326Z,1.56
2023-01-19T21:45:12.833Z,1.67
2023-01-19T21:47:39.493Z,1.84
2023-01-19T21:50:06.231Z,1.75
2023-01-19T21:52:32.825Z,1.76
2023-01-19T21:54:59.416Z,1.74
2023-01-19T21:57:25.944Z,1.49
2023-01-19T21:59:52.605Z,1.83
2023-01-19T22:02:29.971Z,1.77
2023-01-19T22:05:07.525Z,1.43
2023-01-19T22:07:34.118Z,1.99
2023-01-19T22:10:01.203Z,1.79
2023-01-19T22:12:27.944Z,1.86
2023-01-19T22:14:54.584Z,1.92
2023-01-19T22:17:21.189Z,1.82
2023-01-19T22:19:48.432Z,1.81
2023-01-19T22:22:15.397Z,1.89
2023-01-19T22:24:46.442Z,1.98
2023-01-19T22:27:13.561Z,1.78
2023-01-19T22:29:40.119Z,1.89
2023-01-19T22:32:07.216Z,1.66
2023-01-19T22:34:33.885Z,1.89
2023-01-19T22:37:00.753Z,1.82
2023-01-19T22:39:27.431Z,1.39
2023-01-19T22:41:54.038Z,1.53
2023-01-19T22:44:21.665Z,2.02
2023-01-19T22:46:49.770Z,1.88
2023-01-19T22:49:18.037Z,1.61
2023-01-19T22:51:45.290Z,1.70
2023-01-19T22:54:12.402Z,1.95
2023-01-19T22:56:39.721Z,1.92
2023-01-19T22:59:06.992Z,1.92
2023-01-19T23:01:39.220Z,1.54
2023-01-19T23:04:07.580Z,2.03
2023-01-19T23:06:36.677Z,1.98
2023-01-19T23:09:10.695Z,1.80
2023-01-19T23:11:40.211Z,1.99
2023-01-19T23:14:07.955Z,2.18
2023-01-19T23:16:35.784Z,2.09
2023-01-19T23:19:02.672Z,2.05
2023-01-19T23:21:30.694Z,2.01
2023-01-19T23:23:59.741Z,2.21
2023-01-19T23:26:27.339Z,2.18
2023-01-19T23:29:01.875Z,1.81
2023-01-19T23:31:30.426Z,1.78
2023-01-19T23:33:59.850Z,1.88
2023-01-19T23:36:28.084Z,1.67
2023-01-19T23:38:57.664Z,2.00
2023-01-19T23:41:25.273Z,2.07
2023-01-19T23:43:52.144Z,2.09
2023-01-19T23:46:19.771Z,2.03
2023-01-19T23:48:46.838Z,1.54
2023-01-19T23:51:16.894Z,2.14
2023-01-19T23:53:43.517Z,1.99
2023-01-19T23:56:13.010Z,1.68
2023-01-19T23:58:40.667Z,2.11
